Time;durP1;ratioP1;P1;durP2;ratioP2;P2;SDS_P1;SDS_P2;PMS_P1;PMS_P2;Temp;Humidity;BMP_temperature;BMP_pressure;BME280_temperature;BME280_humidity;BME280_pressure;Samples;Min_cycle;Max_cycle;Signal;HPM_P1;HPM_P2
2022/07/21 00:01:54;;;;;;;;;;;;;;;20.15;57.13;100545.77;1419580;90;20421;-75
2022/07/21 00:04:21;;;;;;;;;;;;;;;20.11;58.29;100553.94;1414664;91;20310;-75
2022/07/21 00:06:48;;;;;;;;;;;;;;;20.07;58.22;100550.00;1422259;91;20481;-76
2022/07/21 00:09:15;;;;;;;;;;;;;;;20.02;59.02;100557.35;1426634;91;20628;-76
2022/07/21 00:11:42;;;;;;;;;;;;;;;19.97;58.92;100556.31;1427564;91;21208;-76
2022/07/21 00:14:09;;;;;;;;;;;;;;;19.92;58.30;100558.78;1404786;91;20302;-76
2022/07/21 00:16:36;;;;;;;;;;;;;;;19.86;59.78;100562.30;1418087;91;21514;-75
2022/07/21 00:19:03;;;;;;;;;;;;;;;19.76;59.22;100552.76;1374895;91;20454;-75
2022/07/21 00:21:29;;;;;;;;;;;;;;;19.69;58.56;100551.12;1506011;91;20240;-75
2022/07/21 00:23:55;;;;;;;;;;;;;;;19.65;58.23;100556.08;1425822;91;20252;-75
2022/07/21 00:26:21;;;;;;;;;;;;;;;19.64;58.82;100557.05;1480403;91;20259;-76
2022/07/21 00:28:48;;;;;;;;;;;;;;;19.64;58.78;100554.37;1392670;91;20276;-75
2022/07/21 00:31:14;;;;;;;;;;;;;;;19.61;58.48;100550.75;1489762;92;20322;-75
2022/07/21 00:33:40;;;;;;;;;;;;;;;19.61;59.68;100553.44;1420931;91;20294;-75
2022/07/21 00:36:06;;;;;;;;;;;;;;;19.58;59.64;100550.64;1399540;92;20270;-76
2022/07/21 00:38:32;;;;;;;;;;;;;;;19.54;58.49;100548.58;1351785;91;20259;-75
2022/07/21 00:40:58;;;;;;;;;;;;;;;19.48;60.10;100544.00;1445366;91;20389;-76
2022/07/21 00:43:24;;;;;;;;;;;;;;;19.42;59.39;100550.19;1503519;91;20230;-76
2022/07/21 00:45:52;;;;;;;;;;;;;;;19.38;59.59;100550.59;1487658;92;20221;-76
2022/07/21 00:48:18;;;;;;;;;;;;;;;19.38;60.15;100551.94;1380455;92;20289;-76
2022/07/21 00:50:44;;;;;;;;;;;;;;;19.36;58.85;100555.36;1354097;92;20345;-76
2022/07/21 00:53:11;;;;;;;;;;;;;;;19.35;60.11;100556.88;1351130;93;21147;-76
2022/07/21 00:55:37;;;;;;;;;;;;;;;19.32;61.72;100555.95;1501394;91;20375;-76
2022/07/21 00:58:03;;;;;;;;;;;;;;;19.30;60.43;100564.19;1378034;92;20277;-75
2022/07/21 01:00:30;;;;;;;;;;;;;;;19.29;59.52;100564.41;1387712;92;20891;-74
2022/07/21 01:02:57;;;;;;;;;;;;;;;19.27;60.25;100570.48;1432981;92;20444;-75
2022/07/21 01:05:24;;;;;;;;;;;;;;;19.22;60.26;100570.25;1431361;92;20337;-74
2022/07/21 01:07:53;;;;;;;;;;;;;;;19.18;60.68;100575.71;1423486;91;20336;-75
2022/07/21 01:10:21;;;;;;;;;;;;;;;19.11;60.78;100578.38;1419862;91;20349;-74
2022/07/21 01:12:47;;;;;;;;;;;;;;;19.08;60.59;100575.58;1432996;92;21364;-74
2022/07/21 01:15:15;;;;;;;;;;;;;;;19.06;60.15;100575.45;1429845;92;20418;-75
2022/07/21 01:17:42;;;;;;;;;;;;;;;19.05;61.10;100581.34;1426818;91;20357;-76
2022/07/21 01:20:11;;;;;;;;;;;;;;;18.99;61.87;100580.80;1428375;91;20388;-76
2022/07/21 01:22:40;;;;;;;;;;;;;;;18.96;61.82;100579.00;1421457;91;20396;-76
2022/07/21 01:25:07;;;;;;;;;;;;;;;18.93;61.40;100576.20;1425105;91;20403;-76
2022/07/21 01:27:34;;;;;;;;;;;;;;;18.90;61.50;100572.58;1421624;91;20350;-76
2022/07/21 01:30:00;;;;;;;;;;;;;;;18.89;62.71;100577.64;1428860;91;20343;-76
2022/07/21 01:32:27;;;;;;;;;;;;;;;18.88;61.67;100573.31;1430241;91;21470;-75
2022/07/21 01:34:53;;;;;;;;;;;;;;;18.85;63.23;100570.52;1423386;91;20417;-76
2022/07/21 01:37:23;;;;;;;;;;;;;;;18.81;64.66;100569.75;1425520;91;20857;-75
2022/07/21 01:42:35;;;;;;;;;;;;;;;18.71;64.28;100584.84;1420111;91;20392;-75
2022/07/21 01:45:01;;;;;;;;;;;;;;;18.65;64.13;100585.11;1427207;91;20336;-75
2022/07/21 01:47:27;;;;;;;;;;;;;;;18.60;64.27;100581.36;1433075;91;20380;-76
2022/07/21 01:49:53;;;;;;;;;;;;;;;18.55;65.33;100581.11;1434469;91;20328;-76
2022/07/21 01:52:19;;;;;;;;;;;;;;;18.46;65.37;100587.96;1435571;91;20401;-76
2022/07/21 01:54:45;;;;;;;;;;;;;;;18.36;65.38;100579.45;1421342;91;20448;-76
2022/07/21 01:57:11;;;;;;;;;;;;;;;18.28;64.22;100583.61;1431231;91;20402;-76
2022/07/21 01:59:37;;;;;;;;;;;;;;;18.23;65.93;100576.14;1429023;91;21711;-76
2022/07/21 02:02:02;;;;;;;;;;;;;;;18.21;65.60;100578.70;1431005;91;20233;-76
2022/07/21 02:04:28;;;;;;;;;;;;;;;18.16;65.68;100591.87;1432577;91;20871;-76
2022/07/21 02:06:54;;;;;;;;;;;;;;;18.10;65.54;100581.93;1424107;91;20321;-76
2022/07/21 02:09:20;;;;;;;;;;;;;;;18.07;65.45;100584.96;1430585;91;21025;-76
2022/07/21 02:11:46;;;;;;;;;;;;;;;18.04;66.64;100585.69;1426927;91;20335;-76
2022/07/21 02:14:12;;;;;;;;;;;;;;;18.01;65.97;100583.39;1434529;91;20878;-75
2022/07/21 02:16:38;;;;;;;;;;;;;;;17.99;66.28;100586.77;1431251;91;20328;-75
2022/07/21 02:19:04;;;;;;;;;;;;;;;17.98;65.95;100582.93;1425982;91;21095;-75
2022/07/21 02:21:30;;;;;;;;;;;;;;;17.94;66.73;100578.48;1430166;91;20292;-75
2022/07/21 02:23:56;;;;;;;;;;;;;;;17.91;65.89;100574.84;1430206;91;20299;-75
2022/07/21 02:26:22;;;;;;;;;;;;;;;17.89;67.99;100576.88;1423494;91;20248;-75
2022/07/21 02:28:48;;;;;;;;;;;;;;;17.85;67.02;100572.94;1434072;91;20466;-75
2022/07/21 02:31:14;;;;;;;;;;;;;;;17.79;67.72;100579.88;1421562;91;21004;-76
2022/07/21 02:33:40;;;;;;;;;;;;;;;17.73;67.63;100577.13;1430084;91;20858;-76
2022/07/21 02:36:07;;;;;;;;;;;;;;;17.75;67.63;100576.40;1426505;91;20313;-76
2022/07/21 02:38:32;;;;;;;;;;;;;;;17.80;67.12;100576.69;1428529;91;20841;-76
2022/07/21 02:40:58;;;;;;;;;;;;;;;17.86;65.58;100570.56;1426615;91;20248;-76
2022/07/21 02:43:24;;;;;;;;;;;;;;;17.91;66.58;100574.84;1423685;91;20394;-76
2022/07/21 02:45:50;;;;;;;;;;;;;;;17.95;66.43;100569.92;1421875;91;21136;-75
2022/07/21 02:48:16;;;;;;;;;;;;;;;17.95;66.39;100577.48;1430876;91;20350;-75
2022/07/21 02:50:44;;;;;;;;;;;;;;;17.93;65.61;100576.01;1435516;91;20974;-76
2022/07/21 02:53:13;;;;;;;;;;;;;;;17.94;65.56;100581.67;1425649;91;20342;-75
2022/07/21 02:55:40;;;;;;;;;;;;;;;17.94;65.92;100583.01;1424204;91;20915;-75
2022/07/21 02:58:12;;;;;;;;;;;;;;;17.92;65.69;100584.52;1432798;91;20384;-75
2022/07/21 03:00:47;;;;;;;;;;;;;;;17.91;65.58;100582.87;1428701;91;20328;-75
2022/07/21 03:03:13;;;;;;;;;;;;;;;17.89;65.86;100581.41;1427556;91;20313;-74
2022/07/21 03:05:40;;;;;;;;;;;;;;;17.83;66.78;100584.86;1433492;91;20327;-75
2022/07/21 03:08:07;;;;;;;;;;;;;;;17.78;67.36;100584.08;1395069;92;20406;-74
2022/07/21 03:10:33;;;;;;;;;;;;;;;17.75;66.96;100587.11;1424025;91;20305;-74
2022/07/21 03:12:59;;;;;;;;;;;;;;;17.72;66.70;100591.50;1425104;91;20364;-75
2022/07/21 03:15:26;;;;;;;;;;;;;;;17.68;67.57;100587.56;1422688;91;20357;-75
2022/07/21 03:17:56;;;;;;;;;;;;;;;17.65;67.11;100582.59;1429939;91;20357;-75
2022/07/21 03:20:23;;;;;;;;;;;;;;;17.64;66.99;100588.98;1430526;91;20312;-75
2022/07/21 03:22:49;;;;;;;;;;;;;;;17.66;67.08;100586.91;1426679;91;20262;-75
2022/07/21 03:25:16;;;;;;;;;;;;;;;17.67;67.19;100587.25;1426538;91;20364;-75
2022/07/21 03:27:43;;;;;;;;;;;;;;;17.70;67.53;100589.55;1428837;91;20343;-75
2022/07/21 03:30:10;;;;;;;;;;;;;;;17.76;67.36;100582.09;1423515;91;20298;-75
2022/07/21 03:32:36;;;;;;;;;;;;;;;17.82;67.16;100584.03;1426027;91;20543;-76
2022/07/21 03:35:03;;;;;;;;;;;;;;;17.91;66.73;100585.55;1429625;91;20314;-76
2022/07/21 03:37:30;;;;;;;;;;;;;;;17.99;66.90;100586.77;1431342;91;20343;-76
2022/07/21 03:39:56;;;;;;;;;;;;;;;18.07;66.80;100583.63;1425301;91;20284;-75
2022/07/21 03:42:22;;;;;;;;;;;;;;;18.15;65.99;100587.51;1427855;91;20381;-76
2022/07/21 03:44:48;;;;;;;;;;;;;;;18.22;65.76;100581.71;1433547;91;20402;-76
2022/07/21 03:47:14;;;;;;;;;;;;;;;18.28;64.85;100582.27;1431039;91;20316;-76
2022/07/21 03:49:40;;;;;;;;;;;;;;;18.34;65.19;100588.70;1426724;91;20269;-76
2022/07/21 03:52:05;;;;;;;;;;;;;;;18.39;65.38;100584.42;1432806;91;20511;-76
2022/07/21 03:54:31;;;;;;;;;;;;;;;18.46;65.65;100581.27;1426373;91;20306;-76
2022/07/21 03:56:57;;;;;;;;;;;;;;;18.57;65.19;100584.44;1421609;91;20542;-75
2022/07/21 03:59:23;;;;;;;;;;;;;;;18.65;64.82;100584.29;1430353;91;20446;-75
2022/07/21 04:01:49;;;;;;;;;;;;;;;18.71;64.55;100587.52;1425938;91;20886;-75
2022/07/21 04:04:15;;;;;;;;;;;;;;;18.76;64.36;100593.16;1426289;91;20297;-75
2022/07/21 04:06:41;;;;;;;;;;;;;;;18.80;64.69;100588.22;1430255;91;20849;-75
2022/07/21 04:09:07;;;;;;;;;;;;;;;18.84;64.16;100586.27;1426156;91;20469;-75
2022/07/21 04:11:33;;;;;;;;;;;;;;;18.91;63.75;100589.83;1426153;91;20840;-75
2022/07/21 04:13:58;;;;;;;;;;;;;;;19.00;63.65;100591.02;1428488;91;20320;-75
2022/07/21 04:16:24;;;;;;;;;;;;;;;19.05;63.46;100587.23;1434015;91;20328;-76
2022/07/21 04:18:50;;;;;;;;;;;;;;;19.10;63.29;100586.95;1423934;91;20373;-75
2022/07/21 04:21:16;;;;;;;;;;;;;;;19.17;63.03;100580.25;1413056;93;20308;-75
2022/07/21 04:23:42;;;;;;;;;;;;;;;19.25;62.77;100585.45;1405664;93;20390;-75
2022/07/21 04:26:08;;;;;;;;;;;;;;;19.32;62.32;100586.29;1420370;91;20618;-74
2022/07/21 04:28:34;;;;;;;;;;;;;;;19.41;62.17;100588.80;1444077;90;20313;-75
2022/07/21 04:31:00;;;;;;;;;;;;;;;19.49;62.64;100584.08;1421591;91;20342;-75
2022/07/21 04:33:26;;;;;;;;;;;;;;;19.57;63.01;100582.55;1429818;91;20358;-75
2022/07/21 04:35:51;;;;;;;;;;;;;;;19.66;62.68;100580.54;1427485;91;20328;-75
2022/07/21 04:38:18;;;;;;;;;;;;;;;19.75;61.78;100583.34;1428116;91;20379;-75
2022/07/21 04:40:44;;;;;;;;;;;;;;;19.85;61.50;100586.95;1428918;91;20946;-76
2022/07/21 04:43:10;;;;;;;;;;;;;;;19.96;61.58;100594.94;1430448;91;20826;-75
2022/07/21 04:45:36;;;;;;;;;;;;;;;20.05;60.71;100589.17;1437742;91;20389;-75
2022/07/21 04:48:02;;;;;;;;;;;;;;;20.17;60.75;100591.22;1434616;91;20270;-77
2022/07/21 04:50:29;;;;;;;;;;;;;;;20.29;60.53;100591.75;1434182;91;20358;-77
2022/07/21 04:52:55;;;;;;;;;;;;;;;20.40;60.25;100588.96;1436551;91;21524;-77
2022/07/21 04:55:21;;;;;;;;;;;;;;;20.52;60.04;100591.84;1413836;91;20457;-77
2022/07/21 04:57:50;;;;;;;;;;;;;;;20.62;59.95;100589.56;1424800;91;20438;-77
2022/07/21 05:00:19;;;;;;;;;;;;;;;20.72;59.45;100589.97;1427079;91;20425;-78
2022/07/21 05:02:45;;;;;;;;;;;;;;;20.85;59.20;100594.47;1429978;91;20428;-77
2022/07/21 05:05:11;;;;;;;;;;;;;;;20.98;58.97;100588.25;1426984;91;20477;-77
2022/07/21 05:07:37;;;;;;;;;;;;;;;21.10;58.71;100589.23;1432301;91;20886;-77
2022/07/21 05:10:09;;;;;;;;;;;;;;;21.23;58.12;100592.90;1414147;91;20373;-77
2022/07/21 05:12:35;;;;;;;;;;;;;;;21.34;57.78;100592.23;1432141;91;20409;-77
2022/07/21 05:15:03;;;;;;;;;;;;;;;21.48;57.57;100591.16;1424764;91;20387;-77
2022/07/21 05:17:29;;;;;;;;;;;;;;;21.63;57.46;100599.77;1424338;91;20376;-77
2022/07/21 05:19:55;;;;;;;;;;;;;;;21.75;56.32;100585.61;1430879;91;20263;-77
2022/07/21 05:22:21;;;;;;;;;;;;;;;21.88;56.45;100589.56;1431503;91;20350;-77
2022/07/21 05:24:47;;;;;;;;;;;;;;;22.00;55.97;100589.69;1431667;91;20255;-77
2022/07/21 05:27:13;;;;;;;;;;;;;;;22.14;55.87;100597.16;1427017;91;20922;-77
2022/07/21 05:29:39;;;;;;;;;;;;;;;22.27;55.24;100601.13;1431030;91;20320;-75
2022/07/21 05:32:05;;;;;;;;;;;;;;;22.41;55.30;100597.77;1431015;91;20854;-78
2022/07/21 05:34:31;;;;;;;;;;;;;;;22.55;54.92;100589.04;1420644;91;20405;-79
2022/07/21 05:36:57;;;;;;;;;;;;;;;22.67;54.45;100590.80;1426261;90;20913;-80
2022/07/21 05:39:23;;;;;;;;;;;;;;;22.82;54.09;100590.95;1436204;91;20949;-79
2022/07/21 05:41:49;;;;;;;;;;;;;;;22.94;53.75;100594.02;1423677;91;20321;-79
2022/07/21 05:44:15;;;;;;;;;;;;;;;23.06;52.10;100600.87;1427747;91;20328;-79
2022/07/21 05:46:42;;;;;;;;;;;;;;;23.20;52.03;100601.54;1428387;91;20335;-79
2022/07/21 05:49:08;;;;;;;;;;;;;;;23.30;50.86;100604.51;1427063;91;20320;-80
2022/07/21 05:51:36;;;;;;;;;;;;;;;23.43;51.44;100603.00;1433370;91;20505;-78
2022/07/21 05:54:02;;;;;;;;;;;;;;;23.58;51.66;100608.52;1425341;91;20805;-77
2022/07/21 05:56:28;;;;;;;;;;;;;;;23.72;50.66;100602.44;1425144;91;21022;-78
2022/07/21 05:58:56;;;;;;;;;;;;;;;23.80;50.25;100603.47;1432506;91;20321;-78
2022/07/21 06:01:22;;;;;;;;;;;;;;;23.91;50.30;100601.83;1430249;91;20937;-78
2022/07/21 06:03:49;;;;;;;;;;;;;;;24.02;49.98;100593.74;1432484;91;20328;-78
2022/07/21 06:06:17;;;;;;;;;;;;;;;24.12;50.00;100604.00;1507532;91;20262;-79
2022/07/21 06:08:44;;;;;;;;;;;;;;;24.21;49.30;100601.25;1507620;91;20381;-79
2022/07/21 06:11:13;;;;;;;;;;;;;;;24.32;49.31;100599.09;1460666;90;20450;-79
2022/07/21 06:13:39;;;;;;;;;;;;;;;24.47;49.60;100600.00;1430184;91;20335;-79
2022/07/21 06:16:07;;;;;;;;;;;;;;;24.59;48.99;100602.70;1427648;91;20306;-79
2022/07/21 06:18:33;;;;;;;;;;;;;;;24.65;48.27;100600.40;1484464;91;20373;-79
2022/07/21 06:20:59;;;;;;;;;;;;;;;24.81;48.28;100600.75;1427075;91;21011;-79
2022/07/21 06:23:26;;;;;;;;;;;;;;;24.91;47.63;100601.78;1428601;91;20406;-79
2022/07/21 06:25:53;;;;;;;;;;;;;;;25.02;47.14;100600.11;1503921;91;20285;-79
2022/07/21 06:28:19;;;;;;;;;;;;;;;25.18;48.13;100602.12;1446547;91;20284;-79
2022/07/21 06:30:47;;;;;;;;;;;;;;;25.27;46.59;100599.85;1416930;91;20366;-79
2022/07/21 06:33:13;;;;;;;;;;;;;;;25.34;46.25;100599.70;1402526;91;21177;-80
2022/07/21 06:35:41;;;;;;;;;;;;;;;25.43;45.32;100594.19;1507930;91;20314;-80
2022/07/21 06:38:07;;;;;;;;;;;;;;;25.48;45.28;100601.06;1507957;91;20397;-79
2022/07/21 06:40:34;;;;;;;;;;;;;;;25.65;46.24;100602.46;1484976;91;20335;-80
2022/07/21 06:43:01;;;;;;;;;;;;;;;25.69;45.16;100601.44;1429034;91;20328;-80
2022/07/21 06:45:27;;;;;;;;;;;;;;;25.79;45.30;100603.80;1425460;91;20570;-79
2022/07/21 06:48:07;;;;;;;;;;;;;;;25.87;44.70;100602.63;1422253;91;20480;-79
2022/07/21 06:50:34;;;;;;;;;;;;;;;25.96;44.53;100598.98;1425350;91;20343;-80
2022/07/21 06:53:00;;;;;;;;;;;;;;;26.08;44.05;100600.53;1423138;90;20320;-80
2022/07/21 06:55:27;;;;;;;;;;;;;;;26.19;44.06;100607.49;1419748;91;20446;-80
2022/07/21 06:57:53;;;;;;;;;;;;;;;26.27;43.08;100606.55;1507754;91;20277;-80
2022/07/21 07:00:20;;;;;;;;;;;;;;;26.41;43.50;100605.64;1507918;91;20291;-80
2022/07/21 07:02:46;;;;;;;;;;;;;;;26.51;43.10;100603.13;1507898;91;20366;-79
2022/07/21 07:05:12;;;;;;;;;;;;;;;26.65;43.51;100598.72;1487379;91;20329;-80
2022/07/21 07:07:38;;;;;;;;;;;;;;;26.74;42.67;100602.64;1507844;91;20262;-80
2022/07/21 07:10:05;;;;;;;;;;;;;;;26.85;41.47;100594.11;1498828;91;20350;-80
2022/07/21 07:12:31;;;;;;;;;;;;;;;26.92;41.07;100588.75;1349145;93;20305;-80
2022/07/21 07:14:57;;;;;;;;;;;;;;;27.03;39.75;100592.97;1488365;91;20791;-80
2022/07/21 07:17:23;;;;;;;;;;;;;;;27.10;40.52;100593.58;1494247;91;20381;-80
2022/07/21 07:19:49;;;;;;;;;;;;;;;27.18;40.27;100590.45;1428253;91;21201;-80
2022/07/21 07:22:15;;;;;;;;;;;;;;;27.26;40.19;100601.42;1430168;91;20298;-80
2022/07/21 07:24:43;;;;;;;;;;;;;;;27.38;40.78;100604.27;1427241;91;20336;-80
2022/07/21 07:27:09;;;;;;;;;;;;;;;27.52;39.82;100593.83;1428038;91;20342;-80
2022/07/21 07:29:35;;;;;;;;;;;;;;;27.62;39.05;100597.17;1404203;91;20350;-80
2022/07/21 07:32:01;;;;;;;;;;;;;;;27.71;39.34;100597.53;1427504;91;20446;-80
2022/07/21 07:34:33;;;;;;;;;;;;;;;27.80;39.71;100598.22;1429315;91;20312;-80
2022/07/21 07:37:00;;;;;;;;;;;;;;;27.97;40.37;100601.36;1427966;91;20435;-80
2022/07/21 07:39:26;;;;;;;;;;;;;;;28.12;39.75;100599.58;1433036;91;20418;-80
2022/07/21 07:41:55;;;;;;;;;;;;;;;28.14;38.51;100591.17;1422880;91;20344;-80
2022/07/21 07:44:22;;;;;;;;;;;;;;;28.29;39.35;100588.55;1424895;91;20357;-80
2022/07/21 07:46:48;;;;;;;;;;;;;;;28.30;38.40;100582.02;1371627;91;20362;-83
2022/07/21 07:49:15;;;;;;;;;;;;;;;28.45;38.60;100588.67;1507668;91;20421;-82
2022/07/21 07:51:41;;;;;;;;;;;;;;;28.55;39.17;100589.56;1443177;91;20366;-83
2022/07/21 07:54:13;;;;;;;;;;;;;;;28.75;39.18;100587.50;1429802;91;20277;-83
2022/07/21 07:56:39;;;;;;;;;;;;;;;28.86;37.17;100580.20;1506341;91;20262;-83
2022/07/21 07:59:05;;;;;;;;;;;;;;;29.04;38.31;100587.66;1507637;91;20263;-83
2022/07/21 08:01:32;;;;;;;;;;;;;;;29.14;37.50;100580.88;1355460;91;20336;-84
2022/07/21 08:03:58;;;;;;;;;;;;;;;29.13;35.82;100575.97;1507784;91;20263;-83
2022/07/21 08:06:26;;;;;;;;;;;;;;;29.26;36.55;100576.55;1507514;91;20270;-85
2022/07/21 08:08:52;;;;;;;;;;;;;;;29.33;35.84;100579.84;1453525;91;20321;-84
2022/07/21 08:11:18;;;;;;;;;;;;;;;29.47;35.75;100578.25;1426547;91;20328;-82
2022/07/21 08:13:45;;;;;;;;;;;;;;;29.57;36.36;100571.43;1431628;91;20439;-84
2022/07/21 08:16:12;;;;;;;;;;;;;;;29.68;35.58;100573.11;1426559;91;20535;-85
2022/07/21 08:18:38;;;;;;;;;;;;;;;29.86;36.81;100566.84;1424119;91;20320;-85
2022/07/21 08:21:04;;;;;;;;;;;;;;;29.97;35.21;100576.67;1421888;91;20338;-84
2022/07/21 08:23:30;;;;;;;;;;;;;;;29.99;35.19;100579.14;1427094;91;20402;-85
2022/07/21 08:25:57;;;;;;;;;;;;;;;29.86;34.51;100576.40;1429697;91;20416;-84
2022/07/21 08:28:23;;;;;;;;;;;;;;;29.96;34.88;100568.23;1432403;91;20320;-84
2022/07/21 08:30:49;;;;;;;;;;;;;;;30.09;35.08;100575.84;1416404;91;20372;-84
2022/07/21 08:33:15;;;;;;;;;;;;;;;30.07;34.58;100568.50;1417830;91;20402;-84
2022/07/21 08:35:41;;;;;;;;;;;;;;;30.09;34.21;100561.38;1430668;91;21352;-83
2022/07/21 08:38:11;;;;;;;;;;;;;;;30.11;34.95;100560.57;1433234;91;20306;-85
2022/07/21 08:40:42;;;;;;;;;;;;;;;30.23;35.20;100554.30;1430245;91;21041;-83
2022/07/21 08:43:09;;;;;;;;;;;;;;;30.23;34.62;100550.76;1429890;91;20380;-85
2022/07/21 08:45:37;;;;;;;;;;;;;;;30.40;35.13;100548.53;1431131;91;20350;-84
2022/07/21 08:48:03;;;;;;;;;;;;;;;30.30;33.64;100549.94;1430426;91;20343;-84
2022/07/21 08:50:32;;;;;;;;;;;;;;;30.20;33.64;100549.36;1431610;91;20425;-85
2022/07/21 08:53:01;;;;;;;;;;;;;;;30.41;34.73;100557.54;1432872;91;20462;-85
2022/07/21 08:55:36;;;;;;;;;;;;;;;30.55;33.54;100550.41;1419285;91;20365;-85
2022/07/21 08:58:03;;;;;;;;;;;;;;;30.56;32.58;100550.14;1429881;91;20365;-83
2022/07/21 09:00:29;;;;;;;;;;;;;;;30.66;33.16;100558.84;1509912;91;20344;-84
2022/07/21 09:03:23;;;;;;;;;;;;;;;30.80;32.41;100559.09;1491529;91;20216;-85
2022/07/21 09:06:07;;;;;;;;;;;;;;;30.93;33.19;100547.58;1488427;91;20322;-84
2022/07/21 09:08:45;;;;;;;;;;;;;;;31.03;32.62;100542.59;1509489;91;20856;-85
2022/07/21 09:11:17;;;;;;;;;;;;;;;31.16;32.23;100546.61;1509861;91;20284;-84
2022/07/21 09:13:51;;;;;;;;;;;;;;;31.09;31.07;100539.28;1446540;92;20366;-84
2022/07/21 09:16:16;;;;;;;;;;;;;;;31.19;30.91;100551.55;1483422;91;20276;-85
2022/07/21 09:18:51;;;;;;;;;;;;;;;31.28;31.09;100544.93;1391279;91;20411;-84
2022/07/21 09:21:18;;;;;;;;;;;;;;;31.29;30.93;100540.53;1509895;91;20284;-84
2022/07/21 09:23:46;;;;;;;;;;;;;;;31.39;30.77;100535.05;1426889;91;20868;-84
2022/07/21 09:26:18;;;;;;;;;;;;;;;31.41;30.72;100532.81;1509937;91;20239;-84
2022/07/21 09:28:46;;;;;;;;;;;;;;;31.56;30.72;100530.52;1509776;91;20269;-84
2022/07/21 09:31:12;;;;;;;;;;;;;;;31.57;30.64;100536.83;1496632;91;20254;-84
2022/07/21 09:33:44;;;;;;;;;;;;;;;31.40;29.61;100538.03;1352966;93;20374;-83
2022/07/21 09:36:16;;;;;;;;;;;;;;;31.51;29.68;100535.23;1490615;92;20440;-83
2022/07/21 09:38:45;;;;;;;;;;;;;;;31.69;29.97;100533.17;1504028;92;20389;-84
2022/07/21 09:41:14;;;;;;;;;;;;;;;31.90;29.50;100522.33;1369482;91;20285;-83
2022/07/21 09:43:49;;;;;;;;;;;;;;;31.90;28.38;100516.02;1504248;91;20291;-82
2022/07/21 09:46:21;;;;;;;;;;;;;;;31.94;28.91;100516.28;1503285;91;20262;-83
2022/07/21 09:48:50;;;;;;;;;;;;;;;31.84;28.76;100517.98;1504156;91;20262;-83
2022/07/21 09:51:25;;;;;;;;;;;;;;;31.91;29.60;100517.70;1503696;91;20276;-82
2022/07/21 09:53:58;;;;;;;;;;;;;;;31.74;28.57;100523.56;1349313;93;20270;-83
2022/07/21 09:56:25;;;;;;;;;;;;;;;31.84;28.85;100515.24;1399535;92;20276;-82
2022/07/21 09:58:57;;;;;;;;;;;;;;;31.91;28.21;100517.14;1503873;91;20299;-82
2022/07/21 10:01:24;;;;;;;;;;;;;;;32.02;28.51;100513.73;1411574;91;20277;-82
2022/07/21 10:03:59;;;;;;;;;;;;;;;32.18;27.95;100511.67;1488789;91;20262;-82
2022/07/21 10:06:33;;;;;;;;;;;;;;;32.32;27.88;100510.43;1504156;91;20277;-82
2022/07/21 10:09:05;;;;;;;;;;;;;;;32.36;26.91;100511.47;1504230;92;20355;-81
2022/07/21 10:11:31;;;;;;;;;;;;;;;32.38;26.91;100508.45;1504214;92;20322;-81
2022/07/21 10:13:58;;;;;;;;;;;;;;;32.46;27.52;100505.11;1403779;92;20836;-81
2022/07/21 10:16:25;;;;;;;;;;;;;;;32.68;26.68;100505.91;1504155;91;20255;-81
2022/07/21 10:18:57;;;;;;;;;;;;;;;32.78;26.64;100512.09;1504243;92;20405;-82
2022/07/21 10:21:39;;;;;;;;;;;;;;;32.68;26.19;100512.20;1456433;92;20285;-82
2022/07/21 10:24:05;;;;;;;;;;;;;;;32.78;25.93;100510.72;1488748;92;20366;-82
2022/07/21 10:26:32;;;;;;;;;;;;;;;33.01;26.89;100501.41;1504275;91;20269;-82
2022/07/21 10:28:58;;;;;;;;;;;;;;;33.14;25.42;100508.86;1504260;92;20866;-82
2022/07/21 10:31:27;;;;;;;;;;;;;;;33.20;24.85;100507.70;1457602;91;20313;-82
2022/07/21 10:33:56;;;;;;;;;;;;;;;33.12;25.01;100505.63;1425315;91;20380;-82
2022/07/21 10:36:33;;;;;;;;;;;;;;;33.17;25.49;100502.78;1414895;91;20425;-82
2022/07/21 10:39:15;;;;;;;;;;;;;;;32.63;25.57;100499.97;1427168;91;20343;-82
2022/07/21 10:41:52;;;;;;;;;;;;;;;32.65;26.14;100496.35;1424923;91;20335;-82
2022/07/21 10:44:31;;;;;;;;;;;;;;;32.56;25.59;100489.90;1421476;91;20313;-82
2022/07/21 10:47:06;;;;;;;;;;;;;;;32.61;25.93;100487.10;1423389;91;20358;-82
2022/07/21 10:49:51;;;;;;;;;;;;;;;32.77;25.70;100485.80;1416300;91;20353;-84
2022/07/21 10:52:41;;;;;;;;;;;;;;;32.74;25.64;100501.47;1428264;91;20349;-83
2022/07/21 10:55:26;;;;;;;;;;;;;;;32.78;25.02;100485.24;1427515;91;20372;-83
2022/07/21 10:58:12;;;;;;;;;;;;;;;32.90;24.95;100479.32;1430403;91;20327;-84
2022/07/21 11:00:41;;;;;;;;;;;;;;;33.13;24.53;100485.31;1419428;91;20331;-83
2022/07/21 11:03:15;;;;;;;;;;;;;;;33.10;24.09;100485.91;1407475;91;20298;-84
2022/07/21 11:06:09;;;;;;;;;;;;;;;33.22;24.24;100483.52;1390096;90;20353;-84
2022/07/21 11:08:38;;;;;;;;;;;;;;;33.19;23.88;100481.37;1407915;91;20368;-84
2022/07/21 11:11:26;;;;;;;;;;;;;;;33.37;23.72;100481.66;1416195;91;20295;-84
2022/07/21 11:14:03;;;;;;;;;;;;;;;33.28;23.17;100477.97;1429296;91;20416;-84
2022/07/21 11:16:54;;;;;;;;;;;;;;;33.43;23.92;100480.45;1424503;91;20414;-86
2022/07/21 11:19:34;;;;;;;;;;;;;;;33.46;23.25;100483.44;1423089;91;20340;-86
2022/07/21 11:22:03;;;;;;;;;;;;;;;33.37;23.20;100477.54;1417604;91;20398;-86
2022/07/21 11:24:32;;;;;;;;;;;;;;;33.33;23.40;100469.66;1419276;92;21261;-82
2022/07/21 11:27:04;;;;;;;;;;;;;;;33.36;24.07;100480.03;1426321;91;20332;-82
2022/07/21 11:29:32;;;;;;;;;;;;;;;33.36;23.26;100464.95;1416329;91;20995;-82
2022/07/21 11:32:01;;;;;;;;;;;;;;;33.54;22.81;100475.09;1428514;90;20447;-84
2022/07/21 11:34:42;;;;;;;;;;;;;;;33.79;22.51;100467.55;1421570;90;20290;-85
2022/07/21 11:37:09;;;;;;;;;;;;;;;34.00;22.50;100464.66;1405566;93;20921;-84
2022/07/21 11:39:36;;;;;;;;;;;;;;;34.11;20.90;100464.75;1406647;93;20312;-84
2022/07/21 11:42:09;;;;;;;;;;;;;;;34.17;22.06;100464.66;1403031;93;20491;-84
2022/07/21 11:44:36;;;;;;;;;;;;;;;34.16;21.55;100464.41;1419437;91;20408;-84
2022/07/21 11:47:04;;;;;;;;;;;;;;;34.20;21.89;100462.67;1430627;91;21248;-83
2022/07/21 11:49:31;;;;;;;;;;;;;;;34.23;22.61;100457.94;1427332;91;20448;-84
2022/07/21 11:52:07;;;;;;;;;;;;;;;34.45;22.78;100458.03;1430714;91;20492;-83
2022/07/21 11:54:45;;;;;;;;;;;;;;;34.50;22.40;100455.19;1429862;91;20416;-82
2022/07/21 11:57:13;;;;;;;;;;;;;;;34.74;21.77;100448.66;1428421;91;20356;-82
2022/07/21 11:59:42;;;;;;;;;;;;;;;34.87;22.46;100449.16;1429666;91;20410;-82
2022/07/21 12:02:12;;;;;;;;;;;;;;;34.74;21.62;100444.53;1432469;90;20417;-85
2022/07/21 12:04:47;;;;;;;;;;;;;;;34.83;22.27;100442.67;1428231;91;21019;-85
2022/07/21 12:07:32;;;;;;;;;;;;;;;34.84;22.26;100441.53;1428604;91;20431;-85
2022/07/21 12:10:00;;;;;;;;;;;;;;;34.90;21.49;100435.36;1429178;91;20355;-84
2022/07/21 12:12:42;;;;;;;;;;;;;;;35.01;22.61;100437.55;1504178;91;20352;-84
2022/07/21 12:15:11;;;;;;;;;;;;;;;34.99;22.05;100436.27;1372768;93;20329;-86
2022/07/21 12:17:40;;;;;;;;;;;;;;;34.69;22.05;100433.64;1498779;91;20284;-85
2022/07/21 12:20:08;;;;;;;;;;;;;;;34.90;22.73;100430.70;1509376;91;20305;-84
2022/07/21 12:22:41;;;;;;;;;;;;;;;34.96;21.91;100428.08;1509052;91;20261;-84
2022/07/21 12:25:12;;;;;;;;;;;;;;;34.99;21.89;100429.39;1499868;91;20388;-83
2022/07/21 12:27:46;;;;;;;;;;;;;;;34.95;22.12;100425.05;1378355;91;20306;-84
2022/07/21 12:30:33;;;;;;;;;;;;;;;35.01;22.11;100429.30;1501099;91;20276;-85
2022/07/21 12:33:07;;;;;;;;;;;;;;;35.03;21.83;100429.81;1499214;91;20800;-84
2022/07/21 12:35:41;;;;;;;;;;;;;;;34.99;19.78;100422.52;1359316;91;20339;-84
2022/07/21 12:38:11;;;;;;;;;;;;;;;35.16;21.14;100412.22;1377739;91;20283;-85
2022/07/21 12:40:41;;;;;;;;;;;;;;;35.25;20.04;100417.23;1502822;91;20797;-85
2022/07/21 12:43:17;;;;;;;;;;;;;;;35.17;19.94;100418.80;1353566;91;20291;-84
2022/07/21 12:45:48;;;;;;;;;;;;;;;35.22;20.35;100413.17;1507509;91;20307;-84